createdAt,value
2023-04-15T00:00:13.622Z,94154.00
2023-04-15T00:01:13.636Z,94156.00
2023-04-15T00:02:13.684Z,94154.00
2023-04-15T00:03:13.771Z,94156.00
2023-04-15T00:04:13.717Z,94154.00
2023-04-15T00:05:13.658Z,94153.00
2023-04-15T00:06:13.679Z,94153.00
2023-04-15T00:07:13.669Z,94153.00
2023-04-15T00:08:13.664Z,94153.00
2023-04-15T00:09:13.666Z,94149.00
2023-04-15T00:10:13.684Z,94147.00
2023-04-15T00:11:13.710Z,94151.00
2023-04-15T00:12:13.720Z,94149.00
2023-04-15T00:13:13.726Z,94147.00
2023-04-15T00:14:13.702Z,94145.00
2023-04-15T00:15:13.706Z,94147.00
2023-04-15T00:16:13.718Z,94149.00
2023-04-15T00:17:13.725Z,94149.00
2023-04-15T00:18:13.722Z,94149.00
2023-04-15T00:19:13.727Z,94147.00
2023-04-15T00:20:13.728Z,94147.00
2023-04-15T00:21:13.746Z,94149.00
2023-04-15T00:22:13.808Z,94147.00
2023-04-15T00:23:13.757Z,94147.00
2023-04-15T00:24:13.762Z,94147.00
2023-04-15T00:25:13.762Z,94147.00
2023-04-15T00:26:13.764Z,94151.00
2023-04-15T00:27:13.851Z,94149.00
2023-04-15T00:28:13.770Z,94147.00
2023-04-15T00:29:13.785Z,94145.00
2023-04-15T00:30:13.838Z,94145.00
2023-04-15T00:31:13.911Z,94147.00
2023-04-15T00:32:13.989Z,94143.00
2023-04-15T00:33:14.015Z,94147.00
2023-04-15T00:34:14.080Z,94143.00
2023-04-15T00:35:14.111Z,94147.00
2023-04-15T00:36:14.178Z,94145.00
2023-04-15T00:37:14.263Z,94147.00
2023-04-15T00:38:14.299Z,94145.00
2023-04-15T00:39:14.338Z,94145.00
2023-04-15T00:40:14.358Z,94145.00
2023-04-15T00:41:14.376Z,94143.00
2023-04-15T00:42:14.417Z,94139.00
2023-04-15T00:43:14.519Z,94143.00
2023-04-15T00:44:14.523Z,94141.00
2023-04-15T00:45:14.484Z,94139.00
2023-04-15T00:46:14.553Z,94143.00
2023-04-15T00:47:14.508Z,94143.00
2023-04-15T00:48:14.533Z,94139.00
2023-04-15T00:49:14.548Z,94139.00
2023-04-15T00:50:14.555Z,94137.00
2023-04-15T00:51:14.596Z,94137.00
2023-04-15T00:52:14.607Z,94135.00
2023-04-15T00:53:14.637Z,94133.00
2023-04-15T00:54:14.654Z,94133.00
2023-04-15T00:55:14.687Z,94131.00
2023-04-15T00:56:14.714Z,94121.00
2023-04-15T00:57:14.729Z,94121.00
2023-04-15T00:58:14.742Z,94121.00
2023-04-15T00:59:14.788Z,94121.00
2023-04-15T01:00:14.782Z,94121.00
2023-04-15T01:01:14.867Z,94121.00
2023-04-15T01:02:14.970Z,94121.00
2023-04-15T01:03:14.932Z,94121.00
2023-04-15T01:04:14.920Z,94119.00
2023-04-15T01:05:14.904Z,94119.00
2023-04-15T01:06:14.933Z,94121.00
2023-04-15T01:07:14.970Z,94123.00
2023-04-15T01:08:15.013Z,94119.00
2023-04-15T01:09:15.043Z,94121.00
2023-04-15T01:10:15.045Z,94121.00
2023-04-15T01:11:15.057Z,94123.00
2023-04-15T01:12:15.072Z,94123.00
2023-04-15T01:13:15.102Z,94123.00
2023-04-15T01:14:15.121Z,94131.00
2023-04-15T01:15:15.149Z,94131.00
2023-04-15T01:16:15.176Z,94131.00
2023-04-15T01:17:15.155Z,94131.00
2023-04-15T01:18:15.170Z,94123.00
2023-04-15T01:19:15.205Z,94123.00
2023-04-15T01:20:15.212Z,94121.00
2023-04-15T01:21:15.244Z,94131.00
2023-04-15T01:22:15.276Z,94121.00
2023-04-15T01:23:15.271Z,94131.00
2023-04-15T01:24:15.284Z,94133.00
2023-04-15T01:25:15.319Z,94131.00
2023-04-15T01:26:15.314Z,94135.00
2023-04-15T01:27:15.329Z,94137.00
2023-04-15T01:28:15.348Z,94133.00
2023-04-15T01:29:15.364Z,94137.00
2023-04-15T01:30:15.384Z,94133.00
2023-04-15T01:31:15.466Z,94135.00
2023-04-15T01:32:15.410Z,94133.00
2023-04-15T01:33:15.444Z,94133.00
2023-04-15T01:34:15.468Z,94135.00
2023-04-15T01:35:15.512Z,94131.00
2023-04-15T01:36:15.533Z,94133.00
2023-04-15T01:37:15.574Z,94133.00
2023-04-15T01:38:15.621Z,94121.00
2023-04-15T01:39:15.630Z,94121.00
2023-04-15T01:40:15.659Z,94131.00
2023-04-15T01:41:15.680Z,94131.00
2023-04-15T01:42:15.715Z,94123.00
2023-04-15T01:43:15.745Z,94133.00
2023-04-15T01:44:15.788Z,94123.00
2023-04-15T01:45:16.708Z,94131.00
2023-04-15T01:46:15.903Z,94121.00
2023-04-15T01:47:15.903Z,94131.00
2023-04-15T01:48:15.931Z,94131.00
2023-04-15T01:49:15.986Z,94133.00
2023-04-15T01:50:16.075Z,94133.00
2023-04-15T01:51:16.150Z,94133.00
2023-04-15T01:52:16.229Z,94137.00
2023-04-15T01:53:16.309Z,94135.00
2023-04-15T01:54:16.361Z,94137.00
2023-04-15T01:55:16.435Z,94135.00
2023-04-15T01:56:16.958Z,94133.00
2023-04-15T01:57:16.521Z,94133.00
2023-04-15T01:58:16.571Z,94135.00
2023-04-15T01:59:16.634Z,94137.00
2023-04-15T02:00:16.694Z,94135.00
2023-04-15T02:01:16.829Z,94135.00
2023-04-15T02:02:16.820Z,94137.00
2023-04-15T02:03:17.014Z,94139.00
2023-04-15T02:04:16.950Z,94139.00
2023-04-15T02:05:16.997Z,94139.00
2023-04-15T02:06:17.072Z,94139.00
2023-04-15T02:07:17.141Z,94137.00
2023-04-15T02:08:17.203Z,94135.00
2023-04-15T02:09:17.234Z,94135.00
2023-04-15T02:10:17.272Z,94133.00
2023-04-15T02:11:17.319Z,94131.00
2023-04-15T02:12:17.364Z,94131.00
2023-04-15T02:13:17.387Z,94123.00
2023-04-15T02:14:17.434Z,94131.00
2023-04-15T02:15:17.476Z,94123.00
2023-04-15T02:16:17.619Z,94133.00
2023-04-15T02:17:17.599Z,94133.00
2023-04-15T02:18:17.628Z,94133.00
2023-04-15T02:19:17.713Z,94131.00
2023-04-15T02:20:17.721Z,94133.00
2023-04-15T02:21:17.758Z,94131.00
2023-04-15T02:22:17.794Z,94131.00
2023-04-15T02:23:17.815Z,94123.00
2023-04-15T02:24:17.905Z,94131.00
2023-04-15T02:25:17.900Z,94123.00
2023-04-15T02:26:17.925Z,94121.00
2023-04-15T02:27:17.957Z,94121.00
2023-04-15T02:28:17.989Z,94121.00
2023-04-15T02:29:18.024Z,94117.00
2023-04-15T02:30:18.077Z,94115.00
2023-04-15T02:31:18.174Z,94121.00
2023-04-15T02:32:18.265Z,94123.00
2023-04-15T02:33:18.307Z,94121.00
2023-04-15T02:34:18.391Z,94123.00
2023-04-15T02:35:18.473Z,94119.00
2023-04-15T02:36:18.537Z,94121.00
2023-04-15T02:37:18.618Z,94115.00
2023-04-15T02:38:18.699Z,94121.00
2023-04-15T02:39:18.787Z,94117.00
2023-04-15T02:40:18.922Z,94117.00
2023-04-15T02:41:18.955Z,94115.00
2023-04-15T02:42:19.019Z,94115.00
2023-04-15T02:43:19.109Z,94113.00
2023-04-15T02:44:19.174Z,94109.00
2023-04-15T02:45:19.190Z,94106.00
2023-04-15T02:46:19.310Z,94106.00
2023-04-15T02:47:19.360Z,94102.00
2023-04-15T02:48:19.464Z,94108.00
2023-04-15T02:49:19.521Z,94108.00
2023-04-15T02:50:19.604Z,94106.00
2023-04-15T02:51:19.720Z,94113.00
2023-04-15T02:52:20.720Z,94113.00
2023-04-15T02:53:19.861Z,94117.00
2023-04-15T02:54:19.881Z,94119.00
2023-04-15T02:55:19.987Z,94119.00
2023-04-15T02:56:20.057Z,94131.00
2023-04-15T02:57:20.072Z,94131.00
2023-04-15T02:58:20.728Z,94133.00
2023-04-15T02:59:20.159Z,94133.00
2023-04-15T03:00:20.195Z,94131.00
2023-04-15T03:01:20.316Z,94135.00
2023-04-15T03:02:20.354Z,94135.00
2023-04-15T03:03:20.450Z,94135.00
2023-04-15T03:04:20.445Z,94135.00
2023-04-15T03:05:20.376Z,94135.00
2023-04-15T03:06:20.394Z,94133.00
2023-04-15T03:07:20.436Z,94135.00
2023-04-15T03:08:20.438Z,94133.00
2023-04-15T03:09:20.459Z,94135.00
2023-04-15T03:10:20.496Z,94135.00
2023-04-15T03:11:20.532Z,94135.00
2023-04-15T03:12:20.590Z,94135.00
2023-04-15T03:13:20.659Z,94135.00
2023-04-15T03:14:20.723Z,94135.00
2023-04-15T03:15:20.798Z,94137.00
2023-04-15T03:16:20.918Z,94137.00
2023-04-15T03:17:20.974Z,94137.00
2023-04-15T03:18:21.024Z,94141.00
2023-04-15T03:19:21.101Z,94143.00
2023-04-15T03:20:21.269Z,94141.00
2023-04-15T03:21:21.269Z,94143.00
2023-04-15T03:22:21.356Z,94143.00
2023-04-15T03:23:21.455Z,94143.00
2023-04-15T03:24:21.504Z,94143.00
2023-04-15T03:25:21.575Z,94147.00
2023-04-15T03:26:21.633Z,94145.00
2023-04-15T03:27:21.729Z,94145.00
2023-04-15T03:28:21.789Z,94149.00
2023-04-15T03:29:21.849Z,94145.00
2023-04-15T03:30:21.923Z,94145.00
2023-04-15T03:31:22.246Z,94147.00
2023-04-15T03:32:22.078Z,94145.00
2023-04-15T03:33:22.110Z,94145.00
2023-04-15T03:34:22.186Z,94145.00
2023-04-15T03:35:22.289Z,94145.00
2023-04-15T03:36:22.306Z,94143.00
2023-04-15T03:37:22.353Z,94145.00
2023-04-15T03:38:22.405Z,94145.00
2023-04-15T03:39:22.474Z,94143.00
2023-04-15T03:40:22.536Z,94145.00
2023-04-15T03:41:22.533Z,94145.00
2023-04-15T03:42:22.560Z,94145.00
2023-04-15T03:43:22.597Z,94143.00
2023-04-15T03:44:22.600Z,94145.00
2023-04-15T03:45:22.638Z,94147.00
2023-04-15T03:46:22.689Z,94145.00
2023-04-15T03:47:22.721Z,94141.00
2023-04-15T03:48:22.834Z,94143.00
2023-04-15T03:49:22.759Z,94141.00
2023-04-15T03:50:22.815Z,94145.00
2023-04-15T03:51:22.857Z,94143.00
2023-04-15T03:52:22.931Z,94143.00
2023-04-15T03:53:22.966Z,94141.00
2023-04-15T03:54:22.994Z,94143.00
2023-04-15T03:55:23.045Z,94141.00
2023-04-15T03:56:23.044Z,94137.00
2023-04-15T03:57:23.092Z,94141.00
2023-04-15T03:58:23.141Z,94135.00
2023-04-15T03:59:23.173Z,94135.00
2023-04-15T04:00:23.228Z,94137.00
2023-04-15T04:01:23.273Z,94137.00
2023-04-15T04:02:23.625Z,94135.00
2023-04-15T04:03:23.493Z,94135.00
2023-04-15T04:04:23.613Z,94135.00
2023-04-15T04:05:23.450Z,94139.00
2023-04-15T04:06:23.487Z,94135.00
2023-04-15T04:07:23.504Z,94135.00
2023-04-15T04:08:23.518Z,94139.00
2023-04-15T04:09:23.539Z,94139.00
2023-04-15T04:10:23.571Z,94137.00
2023-04-15T04:11:23.639Z,94139.00
2023-04-15T04:12:23.614Z,94141.00
2023-04-15T04:13:23.665Z,94139.00
2023-04-15T04:14:23.704Z,94139.00
2023-04-15T04:15:23.772Z,94137.00
2023-04-15T04:16:23.859Z,94139.00
2023-04-15T04:17:23.868Z,94141.00
2023-04-15T04:18:23.864Z,94143.00
2023-04-15T04:19:23.903Z,94141.00
2023-04-15T04:20:23.939Z,94145.00
2023-04-15T04:21:23.982Z,94143.00
2023-04-15T04:22:24.013Z,94147.00
2023-04-15T04:23:24.054Z,94143.00
2023-04-15T04:24:24.093Z,94145.00
2023-04-15T04:25:24.154Z,94145.00
2023-04-15T04:26:24.190Z,94145.00
2023-04-15T04:27:24.264Z,94147.00
2023-04-15T04:28:24.293Z,94145.00
2023-04-15T04:29:24.340Z,94149.00
2023-04-15T04:30:24.399Z,94149.00
2023-04-15T04:31:24.496Z,94147.00
2023-04-15T04:32:24.563Z,94145.00
2023-04-15T04:33:24.573Z,94151.00
2023-04-15T04:34:24.631Z,94147.00
2023-04-15T04:35:24.686Z,94149.00
2023-04-15T04:36:24.732Z,94147.00
2023-04-15T04:37:24.771Z,94149.00
2023-04-15T04:38:24.806Z,94151.00
2023-04-15T04:39:24.866Z,94153.00
2023-04-15T04:40:24.931Z,94153.00
2023-04-15T04:41:24.958Z,94153.00
2023-04-15T04:42:25.015Z,94153.00
2023-04-15T04:43:25.108Z,94154.00
2023-04-15T04:44:25.148Z,94156.00
2023-04-15T04:45:25.230Z,94158.00
2023-04-15T04:46:25.280Z,94158.00
2023-04-15T04:47:25.369Z,94160.00
2023-04-15T04:48:25.406Z,94164.00
2023-04-15T04:49:25.462Z,94160.00
2023-04-15T04:50:25.549Z,94164.00
2023-04-15T04:51:25.624Z,94166.00
2023-04-15T04:52:25.716Z,94166.00
2023-04-15T04:53:25.783Z,94168.00
2023-04-15T04:54:25.855Z,94168.00
2023-04-15T04:55:25.953Z,94172.00
2023-04-15T04:56:26.025Z,94168.00
2023-04-15T04:57:26.105Z,94170.00
2023-04-15T04:58:26.155Z,94170.00
2023-04-15T04:59:26.253Z,94170.00
2023-04-15T05:00:26.303Z,94172.00
2023-04-15T05:01:26.358Z,94172.00
2023-04-15T05:02:26.557Z,94170.00
2023-04-15T05:03:26.616Z,94170.00
2023-04-15T05:04:26.569Z,94172.00
2023-04-15T05:05:26.651Z,94172.00
2023-04-15T05:06:26.714Z,94172.00
2023-04-15T05:07:26.792Z,94172.00
2023-04-15T05:08:26.829Z,94170.00
2023-04-15T05:09:26.886Z,94168.00
2023-04-15T05:10:26.937Z,94172.00
2023-04-15T05:11:26.992Z,94170.00
2023-04-15T05:12:27.040Z,94168.00
2023-04-15T05:13:27.074Z,94168.00
2023-04-15T05:14:27.108Z,94168.00
2023-04-15T05:15:27.146Z,94166.00
2023-04-15T05:16:27.141Z,94166.00
2023-04-15T05:17:27.242Z,94168.00
2023-04-15T05:18:27.231Z,94166.00
2023-04-15T05:19:27.283Z,94162.00
2023-04-15T05:20:27.329Z,94164.00
2023-04-15T05:21:27.362Z,94160.00
2023-04-15T05:22:27.396Z,94162.00
2023-04-15T05:23:27.424Z,94162.00
2023-04-15T05:24:27.472Z,94160.00
2023-04-15T05:25:27.511Z,94158.00
2023-04-15T05:26:27.593Z,94158.00
2023-04-15T05:27:27.600Z,94158.00
2023-04-15T05:28:27.648Z,94158.00
2023-04-15T05:29:27.690Z,94156.00
2023-04-15T05:30:27.731Z,94158.00
2023-04-15T05:31:28.028Z,94156.00
2023-04-15T05:32:27.891Z,94156.00
2023-04-15T05:33:27.901Z,94156.00
2023-04-15T05:34:27.950Z,94154.00
2023-04-15T05:35:27.983Z,94158.00
2023-04-15T05:36:28.004Z,94160.00
2023-04-15T05:37:28.032Z,94160.00
2023-04-15T05:38:28.051Z,94162.00
2023-04-15T05:39:28.069Z,94162.00
2023-04-15T05:40:28.111Z,94162.00
2023-04-15T05:41:28.111Z,94162.00
2023-04-15T05:42:28.122Z,94166.00
2023-04-15T05:43:28.138Z,94166.00
2023-04-15T05:44:28.167Z,94170.00
2023-04-15T05:45:28.190Z,94172.00
2023-04-15T05:46:28.260Z,94170.00
2023-04-15T05:47:28.287Z,94174.00
2023-04-15T05:48:29.263Z,94174.00
2023-04-15T05:49:28.299Z,94170.00
2023-04-15T05:50:28.321Z,94174.00
2023-04-15T05:51:28.328Z,94174.00
2023-04-15T05:52:28.344Z,94172.00
2023-04-15T05:53:28.379Z,94176.00
2023-04-15T05:54:28.369Z,94176.00
2023-04-15T05:55:28.383Z,94176.00
2023-04-15T05:56:28.398Z,94182.00
2023-04-15T05:57:28.415Z,94182.00
2023-04-15T05:58:28.429Z,94176.00
2023-04-15T05:59:28.473Z,94176.00
2023-04-15T06:00:28.514Z,94178.00
2023-04-15T06:01:28.674Z,94174.00
2023-04-15T06:02:28.627Z,94178.00
2023-04-15T06:03:28.704Z,94172.00
2023-04-15T06:04:28.833Z,94172.00
2023-04-15T06:05:28.658Z,94172.00
2023-04-15T06:06:28.675Z,94176.00
2023-04-15T06:07:28.711Z,94178.00
2023-04-15T06:08:28.769Z,94178.00
2023-04-15T06:09:28.853Z,94180.00
2023-04-15T06:10:29.014Z,94178.00
2023-04-15T06:11:28.953Z,94178.00
2023-04-15T06:12:29.009Z,94180.00
2023-04-15T06:13:29.070Z,94180.00
2023-04-15T06:14:29.120Z,94174.00
2023-04-15T06:15:29.171Z,94182.00
2023-04-15T06:16:29.227Z,94176.00
2023-04-15T06:17:29.347Z,94172.00
2023-04-15T06:18:29.321Z,94176.00
2023-04-15T06:19:29.983Z,94174.00
2023-04-15T06:20:29.466Z,94172.00
2023-04-15T06:21:29.519Z,94170.00
2023-04-15T06:22:29.629Z,94172.00
2023-04-15T06:23:29.616Z,94170.00
2023-04-15T06:24:29.656Z,94174.00
2023-04-15T06:25:29.696Z,94172.00
2023-04-15T06:26:29.722Z,94170.00
2023-04-15T06:27:29.764Z,94176.00
2023-04-15T06:28:29.787Z,94174.00
2023-04-15T06:29:29.804Z,94174.00
2023-04-15T06:30:29.840Z,94176.00
2023-04-15T06:31:29.926Z,94174.00
2023-04-15T06:32:29.970Z,94174.00
2023-04-15T06:33:29.972Z,94172.00
2023-04-15T06:34:29.994Z,94168.00
2023-04-15T06:35:30.061Z,94166.00
2023-04-15T06:36:30.063Z,94172.00
2023-04-15T06:37:30.061Z,94172.00
2023-04-15T06:38:30.075Z,94172.00
2023-04-15T06:39:30.086Z,94176.00
2023-04-15T06:40:30.115Z,94174.00
2023-04-15T06:41:30.135Z,94174.00
2023-04-15T06:42:30.150Z,94176.00
2023-04-15T06:43:30.162Z,94178.00
2023-04-15T06:44:31.577Z,94176.00
2023-04-15T06:45:30.198Z,94178.00
2023-04-15T06:46:30.133Z,94178.00
2023-04-15T06:47:30.141Z,94178.00
2023-04-15T06:48:30.110Z,94170.00
2023-04-15T06:49:30.087Z,94174.00
2023-04-15T06:50:30.080Z,94172.00
2023-04-15T06:51:30.085Z,94172.00
2023-04-15T06:52:30.050Z,94172.00
2023-04-15T06:53:30.071Z,94168.00
2023-04-15T06:54:30.027Z,94172.00
2023-04-15T06:55:30.022Z,94172.00
2023-04-15T06:56:30.020Z,94170.00
2023-04-15T06:57:31.563Z,94168.00
2023-04-15T06:58:29.980Z,94170.00
2023-04-15T06:59:29.972Z,94160.00
2023-04-15T07:00:30.003Z,94166.00
2023-04-15T07:01:30.076Z,94164.00
2023-04-15T07:02:30.261Z,94160.00
2023-04-15T07:03:32.569Z,94164.00
2023-04-15T07:04:29.998Z,94162.00
2023-04-15T07:05:29.902Z,94164.00
2023-04-15T07:06:29.890Z,94166.00
2023-04-15T07:07:29.900Z,94166.00
2023-04-15T07:08:29.858Z,94166.00
2023-04-15T07:09:29.874Z,94166.00
2023-04-15T07:10:29.830Z,94164.00
2023-04-15T07:11:29.815Z,94162.00
2023-04-15T07:12:29.820Z,94164.00
2023-04-15T07:13:29.785Z,94164.00
2023-04-15T07:14:29.773Z,94158.00
2023-04-15T07:15:29.773Z,94160.00
2023-04-15T07:16:30.013Z,94160.00
2023-04-15T07:17:29.745Z,94158.00
2023-04-15T07:18:29.706Z,94162.00
2023-04-15T07:19:29.683Z,94162.00
2023-04-15T07:20:29.705Z,94162.00
2023-04-15T07:21:29.661Z,94162.00
2023-04-15T07:22:29.646Z,94166.00
2023-04-15T07:23:29.657Z,94164.00
2023-04-15T07:24:29.618Z,94166.00
2023-04-15T07:25:29.608Z,94168.00
2023-04-15T07:26:29.581Z,94168.00
2023-04-15T07:27:29.572Z,94170.00
2023-04-15T07:28:29.543Z,94166.00
2023-04-15T07:29:29.536Z,94164.00
2023-04-15T07:30:29.522Z,94164.00
2023-04-15T07:31:29.589Z,94162.00
2023-04-15T07:32:29.526Z,94164.00
2023-04-15T07:33:29.482Z,94158.00
2023-04-15T07:34:31.447Z,94156.00
2023-04-15T07:35:29.462Z,94162.00
2023-04-15T07:36:29.443Z,94162.00
2023-04-15T07:37:29.420Z,94156.00
2023-04-15T07:38:29.415Z,94158.00
2023-04-15T07:39:29.425Z,94158.00
2023-04-15T07:40:29.402Z,94158.00
2023-04-15T07:41:29.375Z,94164.00
2023-04-15T07:42:29.387Z,94160.00
2023-04-15T07:43:29.368Z,94164.00
2023-04-15T07:44:29.355Z,94164.00
2023-04-15T07:45:29.351Z,94166.00
2023-04-15T07:46:29.381Z,94168.00
2023-04-15T07:47:29.374Z,94164.00
2023-04-15T07:48:29.346Z,94166.00
2023-04-15T07:49:29.327Z,94166.00
2023-04-15T07:50:29.318Z,94170.00
2023-04-15T07:51:29.310Z,94170.00
2023-04-15T07:52:29.301Z,94170.00
2023-04-15T07:53:29.288Z,94176.00
2023-04-15T07:54:29.292Z,94170.00
2023-04-15T07:55:29.297Z,94170.00
2023-04-15T07:56:29.269Z,94172.00
2023-04-15T07:57:29.271Z,94166.00
2023-04-15T07:58:29.266Z,94168.00
2023-04-15T07:59:29.254Z,94166.00
2023-04-15T08:00:29.223Z,94170.00
2023-04-15T08:01:29.213Z,94168.00
2023-04-15T08:02:29.349Z,94168.00
2023-04-15T08:03:29.418Z,94164.00
2023-04-15T08:04:29.277Z,94162.00
2023-04-15T08:05:29.120Z,94164.00
2023-04-15T08:06:29.116Z,94162.00
2023-04-15T08:07:29.080Z,94166.00
2023-04-15T08:08:29.063Z,94168.00
2023-04-15T08:09:29.025Z,94166.00
2023-04-15T08:10:29.000Z,94162.00
2023-04-15T08:11:29.008Z,94162.00
2023-04-15T08:12:28.979Z,94160.00
2023-04-15T08:13:28.920Z,94160.00
2023-04-15T08:14:28.916Z,94158.00
2023-04-15T08:15:28.925Z,94158.00
2023-04-15T08:16:28.959Z,94164.00
2023-04-15T08:17:28.971Z,94164.00
2023-04-15T08:18:28.905Z,94160.00
2023-04-15T08:19:28.891Z,94164.00
2023-04-15T08:20:28.917Z,94164.00
2023-04-15T08:21:28.965Z,94168.00
2023-04-15T08:22:29.058Z,94168.00
2023-04-15T08:23:29.045Z,94168.00
2023-04-15T08:24:29.049Z,94164.00
2023-04-15T08:25:29.066Z,94168.00
2023-04-15T08:26:29.059Z,94168.00
2023-04-15T08:27:29.066Z,94174.00
2023-04-15T08:28:29.030Z,94172.00
2023-04-15T08:29:29.022Z,94170.00
2023-04-15T08:30:29.020Z,94172.00
2023-04-15T08:31:29.045Z,94172.00
2023-04-15T08:32:29.091Z,94170.00
2023-04-15T08:33:28.966Z,94176.00
2023-04-15T08:34:28.942Z,94174.00
2023-04-15T08:35:28.915Z,94174.00
2023-04-15T08:36:28.883Z,94178.00
2023-04-15T08:37:28.870Z,94176.00
2023-04-15T08:38:28.873Z,94174.00
2023-04-15T08:39:28.846Z,94176.00
2023-04-15T08:40:28.839Z,94182.00
2023-04-15T08:41:28.832Z,94180.00
2023-04-15T08:42:28.816Z,94180.00
2023-04-15T08:43:28.849Z,94180.00
2023-04-15T08:44:28.841Z,94178.00
2023-04-15T08:45:28.865Z,94178.00
2023-04-15T08:46:28.894Z,94178.00
2023-04-15T08:47:28.934Z,94178.00
2023-04-15T08:48:28.957Z,94174.00
2023-04-15T08:49:28.975Z,94180.00
2023-04-15T08:50:29.005Z,94176.00
2023-04-15T08:51:29.006Z,94176.00
2023-04-15T08:52:29.005Z,94174.00
2023-04-15T08:53:29.015Z,94178.00
2023-04-15T08:54:28.977Z,94176.00
2023-04-15T08:55:28.970Z,94178.00
2023-04-15T08:56:29.018Z,94176.00
2023-04-15T08:57:29.016Z,94176.00
2023-04-15T08:58:29.026Z,94174.00
2023-04-15T08:59:29.041Z,94172.00
2023-04-15T09:00:29.038Z,94176.00
2023-04-15T09:01:29.079Z,94172.00
2023-04-15T09:02:29.121Z,94172.00
2023-04-15T09:03:29.142Z,94172.00
2023-04-15T09:04:29.116Z,94174.00
2023-04-15T09:05:29.087Z,94174.00
2023-04-15T09:06:29.088Z,94176.00
2023-04-15T09:07:29.100Z,94176.00
2023-04-15T09:08:29.125Z,94176.00
2023-04-15T09:09:29.165Z,94176.00
2023-04-15T09:10:29.174Z,94180.00
2023-04-15T09:11:29.230Z,94178.00
2023-04-15T09:12:29.212Z,94178.00
2023-04-15T09:13:29.253Z,94180.00
2023-04-15T09:14:29.282Z,94178.00
2023-04-15T09:15:29.323Z,94178.00
2023-04-15T09:16:29.333Z,94182.00
2023-04-15T09:17:29.320Z,94180.00
2023-04-15T09:18:29.285Z,94178.00
2023-04-15T09:19:29.261Z,94182.00
2023-04-15T09:20:29.248Z,94180.00
2023-04-15T09:21:29.232Z,94178.00
2023-04-15T09:22:29.223Z,94182.00
2023-04-15T09:23:29.194Z,94180.00
2023-04-15T09:24:29.185Z,94182.00
2023-04-15T09:25:29.162Z,94176.00
2023-04-15T09:26:29.150Z,94178.00
2023-04-15T09:27:29.130Z,94182.00
2023-04-15T09:28:29.104Z,94180.00
2023-04-15T09:29:29.079Z,94180.00
2023-04-15T09:30:29.098Z,94178.00
2023-04-15T09:31:29.031Z,94178.00
2023-04-15T09:32:29.079Z,94182.00
2023-04-15T09:33:28.942Z,94180.00
2023-04-15T09:34:28.916Z,94180.00
2023-04-15T09:35:28.885Z,94180.00
2023-04-15T09:36:28.826Z,94184.00
2023-04-15T09:37:32.496Z,94180.00
2023-04-15T09:38:28.728Z,94188.00
2023-04-15T09:39:28.681Z,94184.00
2023-04-15T09:40:28.629Z,94186.00
2023-04-15T09:41:28.636Z,94182.00
2023-04-15T09:42:28.530Z,94182.00
2023-04-15T09:43:28.492Z,94184.00
2023-04-15T09:44:28.436Z,94182.00
2023-04-15T09:45:29.510Z,94178.00
2023-04-15T09:46:28.379Z,94180.00
2023-04-15T09:47:28.353Z,94180.00
2023-04-15T09:48:28.256Z,94176.00
2023-04-15T09:49:28.244Z,94176.00
2023-04-15T09:50:28.175Z,94176.00
2023-04-15T09:51:28.132Z,94176.00
2023-04-15T09:52:28.084Z,94178.00
2023-04-15T09:53:29.346Z,94178.00
2023-04-15T09:54:27.993Z,94178.00
2023-04-15T09:55:27.962Z,94178.00
2023-04-15T09:56:27.890Z,94176.00
2023-04-15T09:57:27.843Z,94176.00
2023-04-15T09:58:27.790Z,94176.00
2023-04-15T09:59:27.741Z,94174.00
2023-04-15T10:00:27.703Z,94176.00
2023-04-15T10:01:27.664Z,94174.00
2023-04-15T10:02:27.657Z,94178.00
2023-04-15T10:03:27.756Z,94182.00
2023-04-15T10:04:27.553Z,94176.00
2023-04-15T10:05:28.012Z,94178.00
2023-04-15T10:06:27.611Z,94178.00
2023-04-15T10:07:27.583Z,94178.00
2023-04-15T10:08:27.566Z,94176.00
2023-04-15T10:09:27.537Z,94174.00
2023-04-15T10:10:27.534Z,94174.00
2023-04-15T10:11:28.657Z,94176.00
2023-04-15T10:12:27.469Z,94178.00
2023-04-15T10:13:27.424Z,94176.00
2023-04-15T10:14:27.366Z,94182.00
2023-04-15T10:15:27.328Z,94178.00
2023-04-15T10:16:27.474Z,94178.00
2023-04-15T10:17:27.686Z,94180.00
2023-04-15T10:18:27.180Z,94182.00
2023-04-15T10:19:27.148Z,94182.00
2023-04-15T10:20:27.114Z,94180.00
2023-04-15T10:21:27.058Z,94180.00
2023-04-15T10:22:27.018Z,94182.00
2023-04-15T10:23:26.977Z,94182.00
2023-04-15T10:24:26.936Z,94180.00
2023-04-15T10:25:26.899Z,94182.00
2023-04-15T10:26:26.853Z,94182.00
2023-04-15T10:27:26.840Z,94186.00
2023-04-15T10:28:26.854Z,94186.00
2023-04-15T10:29:26.889Z,94182.00
2023-04-15T10:30:26.916Z,94186.00
2023-04-15T10:31:26.971Z,94188.00
2023-04-15T10:32:27.008Z,94186.00
2023-04-15T10:33:27.006Z,94190.00
2023-04-15T10:34:27.026Z,94188.00
2023-04-15T10:35:27.090Z,94192.00
2023-04-15T10:36:27.021Z,94190.00
2023-04-15T10:37:27.033Z,94190.00
2023-04-15T10:38:27.050Z,94192.00
2023-04-15T10:39:27.126Z,94196.00
2023-04-15T10:40:27.108Z,94198.00
2023-04-15T10:41:27.123Z,94198.00
2023-04-15T10:42:27.132Z,94198.00
2023-04-15T10:43:27.079Z,94200.00
2023-04-15T10:44:27.035Z,94198.00
2023-04-15T10:45:27.009Z,94202.00
2023-04-15T10:46:27.004Z,94202.00
2023-04-15T10:47:26.970Z,94202.00
2023-04-15T10:48:26.909Z,94208.00
2023-04-15T10:49:26.927Z,94209.00
2023-04-15T10:50:26.942Z,94211.00
2023-04-15T10:51:26.960Z,94211.00
2023-04-15T10:52:26.916Z,94213.00
2023-04-15T10:53:26.900Z,94211.00
2023-04-15T10:54:26.885Z,94213.00
2023-04-15T10:55:26.900Z,94217.00
2023-04-15T10:56:26.890Z,94219.00
2023-04-15T10:57:26.853Z,94215.00
2023-04-15T10:58:26.834Z,94225.00
2023-04-15T10:59:26.848Z,94225.00
2023-04-15T11:00:26.885Z,94215.00
2023-04-15T11:01:26.896Z,94217.00
2023-04-15T11:02:27.009Z,94219.00
2023-04-15T11:03:27.042Z,94215.00
2023-04-15T11:04:27.061Z,94213.00
2023-04-15T11:05:26.997Z,94213.00
2023-04-15T11:06:27.013Z,94215.00
2023-04-15T11:07:27.060Z,94213.00
2023-04-15T11:08:27.044Z,94211.00
2023-04-15T11:09:27.079Z,94213.00
2023-04-15T11:10:27.102Z,94215.00
2023-04-15T11:11:27.122Z,94217.00
2023-04-15T11:12:27.138Z,94217.00
2023-04-15T11:13:27.172Z,94217.00
2023-04-15T11:14:27.201Z,94217.00
2023-04-15T11:15:27.257Z,94217.00
2023-04-15T11:16:27.289Z,94219.00
2023-04-15T11:17:27.379Z,94221.00
2023-04-15T11:18:27.274Z,94215.00
2023-04-15T11:19:27.254Z,94215.00
2023-04-15T11:20:27.258Z,94217.00
2023-04-15T11:21:27.254Z,94219.00
2023-04-15T11:22:27.288Z,94217.00
2023-04-15T11:23:27.352Z,94221.00
2023-04-15T11:24:27.374Z,94225.00
2023-04-15T11:25:27.379Z,94227.00
2023-04-15T11:26:27.411Z,94227.00
2023-04-15T11:27:27.422Z,94233.00
2023-04-15T11:28:27.465Z,94229.00
2023-04-15T11:29:27.525Z,94233.00
2023-04-15T11:30:27.562Z,94229.00
2023-04-15T11:31:27.675Z,94233.00
2023-04-15T11:32:27.706Z,94233.00
2023-04-15T11:33:27.762Z,94231.00
2023-04-15T11:34:27.831Z,94229.00
2023-04-15T11:35:27.901Z,94237.00
2023-04-15T11:36:27.981Z,94233.00
2023-04-15T11:37:27.972Z,94239.00
2023-04-15T11:38:28.035Z,94235.00
2023-04-15T11:39:28.111Z,94237.00
2023-04-15T11:40:28.147Z,94241.00
2023-04-15T11:41:28.203Z,94245.00
2023-04-15T11:42:39.251Z,94243.00
2023-04-15T11:43:28.260Z,94248.00
2023-04-15T11:44:28.266Z,94245.00